Kezdőlap
METAR-TAF:

METAR-TAF

Repülőterek :

Puerto Carreño, Kolumbia

földrajzi szélesség: 06-10N, földrajzi hosszúság: 067-30W, magasság: 55 m

Jelenlegi meteorológiai megfigyelések

A jelentés 7 órával és 17 perccel ezelõtt készült, 23:00 UTC
Különbözõ irányokból fújó szél 2 kt
Hőmérséklet 28°C
Páratartalom 84%
Légköri nyomás 1010 hPa
Látótávolság 10 km, vagy több
Kevés felhő 1700 lábon

METAR: SKPC 122300Z VRB02KT 9999 FEW017 28/25 Q1010

Idő: 01:17 (06:17 UTC)


TAF: hiányzik

Meteorológiai megfigyelések és előrejelzések több, mint 4000 repülőtéren (METAR és TAF jelentéseket).

A térképen piros és sárga pontok jelzik az elérhető meteorológiai állomásokat.

Mozgassa az egeret a pont fölött, hogy megjelenjen az állomás neve.

Azután kattintson az időjárási megfigyelések és előrejelzések megtekintéséhez.

A térkép megváltoztatása: kattintson a fekete keresztel jelölt zöld gombra ráközelítéshez, a vonallal jelölt zöld gombra távolításhoz, vagy a zöld nyilakra a szomszédos térképek eléréséhez.


METAR-TAF: